Time;durP1;ratioP1;P1;durP2;ratioP2;P2;SDS_P1;SDS_P2;PMS_P1;PMS_P2;Temp;Humidity;BMP_temperature;BMP_pressure;BME280_temperature;BME280_humidity;BME280_pressure;Samples;Min_cycle;Max_cycle;Signal;HPM_P1;HPM_P2
2021/12/16 00:09:10;;;;;;;50.67;24.67;;;;;;;1.27;100.00;101925.81;5041481;28;20114;-71
2021/12/16 00:31:02;;;;;;;47.65;23.55;;;;;;;1.27;100.00;101942.34;5048922;28;20110;-67
2021/12/16 00:33:45;;;;;;;53.03;23.70;;;;;;;1.29;100.00;101923.94;5047917;28;20099;-68
2021/12/16 00:36:02;;;;;;;57.30;25.23;;;;;;;1.33;100.00;101936.78;5047505;28;20067;-71
2021/12/16 00:38:28;;;;;;;62.40;24.77;;;;;;;1.34;100.00;101935.84;5035633;28;20045;-70
2021/12/16 00:40:55;;;;;;;57.33;24.38;;;;;;;1.31;100.00;101943.00;5045803;28;20029;-71
2021/12/16 00:43:38;;;;;;;52.92;23.75;;;;;;;1.29;100.00;101929.16;5050592;28;20045;-72
2021/12/16 00:54:09;;;;;;;71.90;27.45;;;;;;;1.33;100.00;101941.16;5053317;28;20063;-70
2021/12/16 00:56:35;;;;;;;60.10;26.35;;;;;;;1.34;100.00;101928.00;5038924;28;20034;-71
2021/12/16 00:59:06;;;;;;;57.22;23.50;;;;;;;1.27;100.00;101921.41;5040589;28;20092;-72
2021/12/16 01:02:06;;;;;;;52.72;23.65;;;;;;;1.27;100.00;101926.66;5054014;28;20051;-72
2021/12/16 01:57:37;;;;;;;61.47;24.95;;;;;;;1.30;100.00;101887.25;5005183;28;20099;-69
2021/12/16 02:00:13;;;;;;;50.88;24.10;;;;;;;1.31;100.00;101890.72;5043578;28;20025;-70
2021/12/16 02:02:45;;;;;;;66.00;25.20;;;;;;;1.31;100.00;101886.31;5028353;28;20435;-70
2021/12/16 02:08:22;;;;;;;52.30;22.03;;;;;;;1.29;100.00;101882.97;5050678;28;20048;-70
2021/12/16 02:11:14;;;;;;;46.15;22.88;;;;;;;1.30;100.00;101879.41;5050051;28;20277;-71
2021/12/16 02:27:44;;;;;;;53.20;23.05;;;;;;;1.35;100.00;101887.88;5051086;28;20466;-71
2021/12/16 02:37:49;;;;;;;60.25;24.20;;;;;;;1.39;100.00;101878.91;5041852;28;19963;-70
2021/12/16 02:40:17;;;;;;;53.45;23.67;;;;;;;1.38;100.00;101879.84;5047522;28;20033;-69
2021/12/16 02:42:58;;;;;;;58.97;23.92;;;;;;;1.37;100.00;101877.31;5049552;28;20021;-70
2021/12/16 02:50:59;;;;;;;66.63;24.92;;;;;;;1.38;100.00;101885.06;5048810;28;20090;-69
2021/12/16 02:53:24;;;;;;;54.42;23.63;;;;;;;1.38;100.00;101877.22;5050842;28;20469;-69
2021/12/16 02:55:50;;;;;;;59.85;27.02;;;;;;;1.39;100.00;101878.91;5049160;28;20032;-70
2021/12/16 02:58:15;;;;;;;52.05;25.08;;;;;;;1.43;100.00;101874.38;5051945;28;20044;-70
2021/12/16 03:00:50;;;;;;;58.47;23.83;;;;;;;1.43;100.00;101877.00;5043724;28;20124;-70
2021/12/16 03:03:16;;;;;;;68.85;24.67;;;;;;;1.38;100.00;101872.00;5033231;28;20071;-70
2021/12/16 03:05:42;;;;;;;63.67;24.73;;;;;;;1.40;100.00;101877.16;5040245;28;20033;-71
2021/12/16 03:08:08;;;;;;;57.63;24.92;;;;;;;1.43;100.00;101884.00;5047610;28;20032;-71
2021/12/16 03:13:26;;;;;;;52.45;24.52;;;;;;;1.44;100.00;101889.13;5040188;28;20048;-73
2021/12/16 03:16:02;;;;;;;49.35;23.08;;;;;;;1.43;100.00;101884.84;5040164;28;20033;-71
2021/12/16 03:21:14;;;;;;;58.75;24.75;;;;;;;1.44;100.00;101880.44;5050432;28;20031;-72
2021/12/16 03:37:01;;;;;;;56.88;25.48;;;;;;;1.49;100.00;101894.13;5047781;28;20021;-70
2021/12/16 03:39:31;;;;;;;65.45;26.55;;;;;;;1.49;100.00;101889.75;5049482;28;20051;-70
2021/12/16 03:41:58;;;;;;;62.22;24.50;;;;;;;1.50;100.00;101895.81;5046301;28;20103;-72
2021/12/16 03:44:37;;;;;;;57.70;22.27;;;;;;;1.52;100.00;101891.34;5040972;28;20037;-68
2021/12/16 03:47:03;;;;;;;57.75;26.30;;;;;;;1.48;100.00;101895.06;5046843;28;20528;-72
2021/12/16 03:49:30;;;;;;;62.30;25.98;;;;;;;1.48;100.00;101885.44;5049830;28;20120;-70
2021/12/16 03:52:06;;;;;;;52.88;24.33;;;;;;;1.56;100.00;101879.78;5047370;28;20032;-74
2021/12/16 03:54:42;;;;;;;57.00;26.15;;;;;;;1.56;100.00;101882.41;5050019;28;20086;-69
2021/12/16 03:57:12;;;;;;;62.05;23.70;;;;;;;1.56;100.00;101885.88;5038708;28;20037;-70
2021/12/16 03:59:39;;;;;;;55.83;25.23;;;;;;;1.56;100.00;101890.25;5044944;28;20025;-73
2021/12/16 04:02:20;;;;;;;58.95;24.70;;;;;;;1.60;100.00;101881.31;5046675;28;20028;-72
2021/12/16 04:04:51;;;;;;;58.42;25.95;;;;;;;1.56;100.00;101882.41;5049432;28;20032;-72
2021/12/16 04:07:25;;;;;;;60.13;26.83;;;;;;;1.56;100.00;101883.25;5047285;28;20037;-73
2021/12/16 04:09:51;;;;;;;;;;;;;;;1.60;100.00;101889.16;5045558;28;20126;-71
2021/12/16 04:12:20;;;;;;;59.22;24.15;;;;;;;1.56;100.00;101883.25;5043550;28;19917;-71
2021/12/16 04:14:49;;;;;;;66.65;26.00;;;;;;;1.56;100.00;101883.25;5048363;28;20036;-71
2021/12/16 04:17:15;;;;;;;63.78;25.88;;;;;;;1.59;100.00;101883.06;5047689;28;20116;-69
2021/12/16 04:19:41;;;;;;;61.72;23.05;;;;;;;1.57;100.00;101894.56;5034290;28;20112;-72
2021/12/16 04:22:18;;;;;;;59.33;24.95;;;;;;;1.58;100.00;101884.00;5043368;28;20112;-71
2021/12/16 04:24:48;;;;;;;59.97;25.23;;;;;;;1.54;100.00;101874.66;5039010;28;20031;-70
2021/12/16 04:27:15;;;;;;;62.28;25.52;;;;;;;1.56;100.00;101877.19;5038859;28;20025;-70
2021/12/16 04:29:40;;;;;;;52.13;22.98;;;;;;;1.52;100.00;101873.88;5045389;28;20029;-70
2021/12/16 04:32:07;;;;;;;53.47;22.88;;;;;;;1.59;100.00;101883.06;5038451;28;20026;-71
2021/12/16 04:34:32;;;;;;;52.67;23.55;;;;;;;1.59;100.00;101885.69;5050320;28;20473;-70
2021/12/16 04:36:58;;;;;;;49.65;22.55;;;;;;;1.58;100.00;101886.63;5043857;28;20099;-71
2021/12/16 04:39:28;;;;;;;52.63;22.13;;;;;;;1.59;100.00;101885.69;5049519;28;20029;-69
2021/12/16 04:41:55;;;;;;;55.83;21.75;;;;;;;1.56;100.00;101883.25;5050852;28;20028;-73
2021/12/16 04:44:21;;;;;;;48.78;21.65;;;;;;;1.54;100.00;101886.84;5049592;28;20055;-71
2021/12/16 04:46:47;;;;;;;58.65;21.63;;;;;;;1.58;100.00;101893.63;5047738;28;20532;-72
2021/12/16 04:49:15;;;;;;;49.88;20.70;;;;;;;1.56;100.00;101891.09;5049935;28;20053;-71
2021/12/16 04:51:44;;;;;;;48.70;21.67;;;;;;;1.59;100.00;101884.84;5048382;28;20432;-71
2021/12/16 04:54:11;;;;;;;58.55;22.25;;;;;;;1.72;100.00;101885.03;5041807;28;20029;-74
2021/12/16 04:56:38;;;;;;;48.92;21.38;;;;;;;2.10;100.00;101888.97;5040124;28;20029;-75
2021/12/16 04:59:10;;;;;;;56.85;22.45;;;;;;;1.84;100.00;101879.13;5037784;28;20025;-76
2021/12/16 05:01:38;;;;;;;46.78;20.50;;;;;;;2.12;100.00;101886.25;5037747;28;20474;-74
2021/12/16 05:04:04;;;;;;;54.92;21.70;;;;;;;1.89;100.00;101877.09;5043838;28;20033;-75
2021/12/16 05:06:29;;;;;;;52.80;19.63;;;;;;;1.84;100.00;101868.66;5038975;28;20493;-77
2021/12/16 05:08:55;;;;;;;43.78;20.60;;;;;;;1.73;100.00;101863.16;5039799;28;20037;-76
2021/12/16 05:11:21;;;;;;;41.00;18.88;;;;;;;1.71;100.00;101865.88;5039432;28;20183;-74
2021/12/16 05:13:48;;;;;;;43.50;21.00;;;;;;;1.71;100.00;101858.03;5043602;28;20025;-74
2021/12/16 05:16:14;;;;;;;39.53;18.95;;;;;;;1.57;100.00;101855.34;5042874;28;20025;-70
2021/12/16 05:18:42;;;;;;;43.50;20.98;;;;;;;1.53;100.00;101859.88;5048748;28;20386;-71
2021/12/16 05:21:43;;;;;;;49.10;22.50;;;;;;;1.48;100.00;101858.47;5043701;28;20031;-70
2021/12/16 05:24:27;;;;;;;46.22;20.60;;;;;;;1.48;100.00;101855.84;5043415;28;20033;-71
2021/12/16 05:26:56;;;;;;;45.70;22.73;;;;;;;1.46;100.00;101852.44;5045658;28;20037;-70
2021/12/16 05:29:22;;;;;;;38.28;19.02;;;;;;;1.48;100.00;101855.84;5040165;28;20044;-69
2021/12/16 05:31:47;;;;;;;47.67;23.10;;;;;;;1.45;100.00;101859.44;5042892;28;20556;-70
2021/12/16 05:34:13;;;;;;;51.78;22.17;;;;;;;1.43;100.00;101860.47;5038330;28;20025;-70
2021/12/16 05:36:40;;;;;;;43.65;19.40;;;;;;;1.38;100.00;101851.09;5052185;28;20446;-69
2021/12/16 05:39:06;;;;;;;48.65;22.52;;;;;;;1.41;100.00;101857.09;5048055;28;20033;-70
2021/12/16 05:41:32;;;;;;;49.90;22.98;;;;;;;1.43;100.00;101853.47;5040931;28;20030;-69
2021/12/16 05:43:58;;;;;;;49.25;22.35;;;;;;;1.35;100.00;101845.19;5031259;28;20039;-69
2021/12/16 05:46:25;;;;;;;46.58;21.83;;;;;;;1.36;100.00;101852.09;5045634;28;20025;-72
2021/12/16 05:48:51;;;;;;;52.20;21.63;;;;;;;1.60;100.00;101857.75;5046050;28;20041;-72
2021/12/16 05:51:41;;;;;;;47.58;21.55;;;;;;;1.44;100.00;101859.53;5047951;28;20490;-75
2021/12/16 05:54:07;;;;;;;54.45;23.33;;;;;;;1.46;100.00;101855.91;5038227;28;20017;-74
2021/12/16 05:56:34;;;;;;;48.42;23.40;;;;;;;1.46;100.00;101853.28;5047857;28;20382;-68
2021/12/16 05:59:00;;;;;;;53.53;23.02;;;;;;;1.43;100.00;101850.84;5046861;28;20045;-73
2021/12/16 06:01:32;;;;;;;41.67;22.00;;;;;;;1.44;100.00;101870.00;5045626;28;20029;-68
2021/12/16 06:03:59;;;;;;;56.92;23.05;;;;;;;1.44;100.00;101867.38;5046679;28;20486;-72
2021/12/16 06:06:26;;;;;;;55.78;25.08;;;;;;;1.51;100.00;101869.56;5043342;28;20032;-70
2021/12/16 06:08:52;;;;;;;52.30;21.77;;;;;;;1.52;100.00;101870.41;5051374;28;20025;-74
2021/12/16 06:11:22;;;;;;;46.08;21.83;;;;;;;1.46;100.00;101878.59;5041143;28;20090;-71
2021/12/16 06:27:33;;;;;;;46.72;22.40;;;;;;;1.52;100.00;101904.41;5049440;28;20039;-74
2021/12/16 06:29:58;;;;;;;40.97;20.95;;;;;;;1.53;100.00;101896.47;5034860;28;20508;-73
2021/12/16 06:32:25;;;;;;;43.30;19.55;;;;;;;1.57;100.00;101898.00;5052015;28;20116;-70
2021/12/16 06:34:53;;;;;;;38.53;18.85;;;;;;;1.52;100.00;101897.41;5049913;28;20437;-72
2021/12/16 06:37:19;;;;;;;42.03;20.30;;;;;;;1.55;100.00;101905.13;5049640;28;20032;-75
2021/12/16 06:39:44;;;;;;;36.13;18.75;;;;;;;1.60;100.00;101891.75;5050847;28;20100;-76
2021/12/16 06:42:11;;;;;;;42.75;20.98;;;;;;;1.64;100.00;101902.00;5050986;28;20048;-71
2021/12/16 06:44:44;;;;;;;39.55;18.25;;;;;;;1.58;100.00;101885.78;5051014;28;20029;-69
2021/12/16 06:47:16;;;;;;;51.77;20.00;;;;;;;1.59;100.00;101888.31;5047924;28;20488;-72
2021/12/16 06:49:45;;;;;;;40.92;21.10;;;;;;;1.68;100.00;101889.56;5048901;28;20092;-68
2021/12/16 06:52:14;;;;;;;35.85;18.58;;;;;;;1.66;100.00;101894.88;5040122;28;20037;-73
2021/12/16 06:54:56;;;;;;;38.83;19.50;;;;;;;1.61;100.00;101890.84;5044736;28;20104;-70
2021/12/16 06:59:56;;;;;;;35.60;17.95;;;;;;;1.69;100.00;101896.53;5051493;28;20029;-69
2021/12/16 07:05:10;;;;;;;42.03;21.17;;;;;;;1.70;100.00;101906.06;5050490;28;20095;-68
2021/12/16 07:07:36;;;;;;;43.10;19.50;;;;;;;1.77;100.00;101912.63;5041436;28;20386;-68
2021/12/16 07:10:05;;;;;;;39.00;17.73;;;;;;;1.86;100.00;101914.75;5050403;28;20119;-69
2021/12/16 07:12:38;;;;;;;34.92;18.15;;;;;;;1.84;100.00;101908.75;5041783;28;20482;-72
2021/12/16 07:15:07;;;;;;;42.63;20.05;;;;;;;1.86;100.00;101913.91;5035686;28;20021;-69
2021/12/16 07:17:33;;;;;;;38.08;20.67;;;;;;;1.87;100.00;101911.19;5023623;28;20021;-68
2021/12/16 07:19:58;;;;;;;41.35;17.48;;;;;;;1.80;100.00;101907.22;5036464;28;20031;-69
2021/12/16 07:22:24;;;;;;;40.20;18.20;;;;;;;1.77;100.00;101903.94;5046999;28;20028;-68
2021/12/16 07:24:50;;;;;;;37.65;19.33;;;;;;;1.88;100.00;101901.56;5042687;28;20111;-67
2021/12/16 07:27:15;;;;;;;41.33;19.50;;;;;;;1.91;100.00;101907.50;5037661;28;20021;-68
2021/12/16 07:29:41;;;;;;;37.30;18.88;;;;;;;1.82;100.00;101901.91;5027618;28;20397;-68
2021/12/16 07:32:07;;;;;;;37.70;19.05;;;;;;;1.88;100.00;101910.25;5027588;28;20095;-67
2021/12/16 07:34:33;;;;;;;37.15;18.75;;;;;;;1.96;100.00;101903.75;5029540;28;22536;-67
2021/12/16 07:36:59;;;;;;;33.20;18.08;;;;;;;2.02;100.00;101909.50;5031553;28;20040;-68
2021/12/16 07:39:36;;;;;;;35.70;17.52;;;;;;;2.05;100.00;101906.69;5029112;28;20041;-66
2021/12/16 07:42:02;;;;;;;26.73;17.65;;;;;;;2.07;100.00;101904.84;5031741;28;20171;-68
2021/12/16 07:44:28;;;;;;;35.13;18.40;;;;;;;2.01;100.00;101899.13;5028949;28;20045;-68
2021/12/16 07:47:01;;;;;;;30.65;17.08;;;;;;;2.17;100.00;101905.16;5035366;28;20021;-67
2021/12/16 07:49:34;;;;;;;37.22;18.55;;;;;;;2.21;100.00;101909.31;5026159;28;20056;-68
2021/12/16 07:52:03;;;;;;;41.70;19.73;;;;;;;2.18;100.00;101902.47;5033117;28;20027;-68
2021/12/16 07:54:28;;;;;;;36.45;17.48;;;;;;;2.14;100.00;101900.13;5037287;28;20075;-70
2021/12/16 07:56:55;;;;;;;44.45;19.38;;;;;;;2.27;100.00;101911.56;5033598;28;20060;-67
2021/12/16 07:59:23;;;;;;;31.15;17.75;;;;;;;2.25;100.00;101905.56;5041596;28;20036;-68
2021/12/16 08:01:49;;;;;;;33.22;16.92;;;;;;;2.28;100.00;101913.28;5032674;28;20032;-66
2021/12/16 08:04:21;;;;;;;38.58;20.52;;;;;;;2.45;100.00;101913.16;5049971;28;20032;-66
2021/12/16 08:06:51;;;;;;;39.60;17.15;;;;;;;2.37;100.00;101910.13;5037496;28;20036;-69
2021/12/16 08:09:17;;;;;;;38.40;16.83;;;;;;;2.40;100.00;101903.84;5042105;28;20076;-69
2021/12/16 08:11:43;;;;;;;37.42;17.40;;;;;;;2.56;100.00;101909.06;5027864;28;20060;-69
2021/12/16 08:14:09;;;;;;;36.10;17.25;;;;;;;2.50;100.00;101907.66;5048699;28;20422;-67
2021/12/16 08:16:35;;;;;;;31.17;15.73;;;;;;;2.51;100.00;101906.72;5043131;28;20041;-67
2021/12/16 08:19:01;;;;;;;28.42;16.38;;;;;;;2.48;100.00;101905.09;5044932;28;20466;-67
2021/12/16 08:21:29;;;;;;;34.50;17.10;;;;;;;2.73;100.00;101908.94;5031658;28;20052;-68
2021/12/16 08:24:00;;;;;;;27.05;15.23;;;;;;;2.52;100.00;101907.56;5045359;28;20025;-69
2021/12/16 08:26:27;;;;;;;29.85;15.88;;;;;;;2.72;100.00;101908.09;5045988;28;20894;-66
2021/12/16 08:28:54;;;;;;;25.75;15.23;;;;;;;2.80;100.00;101912.03;5038744;28;20071;-68
2021/12/16 08:31:20;;;;;;;28.15;15.68;;;;;;;2.72;100.00;101915.09;5038358;28;20079;-66
2021/12/16 08:33:46;;;;;;;21.83;13.43;;;;;;;2.67;100.00;101911.91;5040300;28;20033;-69
2021/12/16 08:36:12;;;;;;;26.48;14.68;;;;;;;2.72;100.00;101915.94;5042902;28;20033;-67
2021/12/16 08:38:38;;;;;;;18.75;11.27;;;;;;;2.57;100.00;101910.72;5040268;28;20021;-68
2021/12/16 08:41:15;;;;;;;19.20;11.55;;;;;;;2.71;100.00;101922.09;5037259;28;20049;-67
2021/12/16 08:43:41;;;;;;;22.08;13.05;;;;;;;2.68;100.00;101913.59;5045807;28;20162;-69
2021/12/16 08:46:12;;;;;;;22.27;13.00;;;;;;;2.61;100.00;101907.84;5038185;28;20040;-70
2021/12/16 08:48:39;;;;;;;23.83;13.75;;;;;;;2.63;100.00;101908.59;5036598;28;20029;-70
2021/12/16 08:51:04;;;;;;;25.48;14.02;;;;;;;2.69;100.00;101900.38;5038904;28;20025;-68
2021/12/16 08:53:30;;;;;;;19.75;12.18;;;;;;;2.64;100.00;101896.34;5041122;28;20116;-69
2021/12/16 08:55:56;;;;;;;25.60;13.75;;;;;;;2.72;100.00;101896.75;5047751;28;20025;-69
2021/12/16 08:58:23;;;;;;;19.17;11.15;;;;;;;2.67;100.00;101897.03;5049398;28;20057;-69
2021/12/16 09:00:55;;;;;;;20.63;12.75;;;;;;;2.69;100.00;101889.91;5055078;28;20505;-71
2021/12/16 09:03:20;;;;;;;19.30;11.20;;;;;;;2.72;100.00;101879.25;5045431;28;20048;-66
2021/12/16 09:05:46;;;;;;;25.65;13.00;;;;;;;2.83;100.00;101878.63;5048743;28;20037;-68
2021/12/16 09:08:11;;;;;;;27.23;14.43;;;;;;;2.88;100.00;101873.94;5017809;28;20399;-68
2021/12/16 09:10:38;;;;;;;19.08;12.57;;;;;;;2.84;100.00;101861.94;5032672;28;20103;-67
2021/12/16 09:13:09;;;;;;;26.63;16.67;;;;;;;2.82;100.00;101863.00;5047698;28;20047;-70
2021/12/16 09:16:03;;;;;;;22.30;13.02;;;;;;;2.75;99.98;101863.34;5039583;28;20056;-68
2021/12/16 09:18:32;;;;;;;19.60;13.15;;;;;;;3.07;99.71;101857.09;5039999;28;20048;-76
2021/12/16 09:21:00;;;;;;;18.13;12.10;;;;;;;3.19;98.12;101851.94;5057260;28;20136;-75
2021/12/16 09:23:27;;;;;;;26.52;12.90;;;;;;;3.33;97.97;101853.72;5046951;28;20029;-73
2021/12/16 09:25:52;;;;;;;20.80;13.52;;;;;;;3.40;96.28;101848.94;5044092;28;20037;-73
2021/12/16 09:28:20;;;;;;;17.73;11.05;;;;;;;3.26;95.80;101862.91;5052439;28;20402;-75
2021/12/16 09:30:46;;;;;;;18.73;11.63;;;;;;;3.32;95.26;101862.53;5048714;28;20094;-75
2021/12/16 09:33:15;;;;;;;19.10;11.50;;;;;;;3.34;93.93;101855.41;5051513;28;20074;-72
2021/12/16 09:35:45;;;;;;;19.02;11.63;;;;;;;3.57;94.48;101853.97;5053968;28;20028;-71
2021/12/16 09:38:12;;;;;;;17.27;11.27;;;;;;;3.64;94.10;101849.16;5049265;28;20021;-74
2021/12/16 09:40:46;;;;;;;20.02;13.55;;;;;;;3.43;94.19;101848.72;5052872;28;20094;-76
2021/12/16 09:43:13;;;;;;;27.67;12.10;;;;;;;3.56;92.00;101847.03;5047615;28;20039;-73
2021/12/16 09:45:39;;;;;;;20.77;10.80;;;;;;;3.57;93.23;101853.97;5045459;28;20119;-76
2021/12/16 09:48:05;;;;;;;18.80;11.18;;;;;;;3.42;91.05;101855.75;5043166;28;20029;-75
2021/12/16 09:50:32;;;;;;;18.17;11.18;;;;;;;3.88;89.04;101845.81;5045673;28;20387;-73
2021/12/16 09:52:58;;;;;;;19.98;10.45;;;;;;;3.59;90.22;101845.03;5040833;28;20044;-67
2021/12/16 09:55:24;;;;;;;23.30;11.50;;;;;;;3.75;89.93;101838.84;5040316;28;20032;-67
2021/12/16 09:57:50;;;;;;;18.95;10.93;;;;;;;3.80;89.52;101836.75;5045744;28;20025;-67
2021/12/16 10:00:22;;;;;;;23.60;11.23;;;;;;;3.69;90.92;101828.72;5051905;28;20517;-66
2021/12/16 10:02:48;;;;;;;20.92;11.43;;;;;;;3.41;92.27;101813.91;5048008;28;20394;-68
2021/12/16 10:05:14;;;;;;;22.80;10.85;;;;;;;3.43;91.96;101817.25;5040955;28;20032;-68
2021/12/16 10:07:39;;;;;;;28.73;11.32;;;;;;;3.53;92.43;101818.38;5041082;28;20026;-68
2021/12/16 10:10:13;;;;;;;22.88;12.20;;;;;;;3.33;92.58;101822.25;5041226;28;20036;-67
2021/12/16 10:12:42;;;;;;;33.67;12.40;;;;;;;3.43;93.02;101817.25;5043035;28;21040;-69
2021/12/16 10:17:55;;;;;;;20.60;12.55;;;;;;;3.45;93.74;101818.88;5048859;28;20081;-71
2021/12/16 10:20:26;;;;;;;22.63;12.90;;;;;;;3.64;93.31;101815.06;5042712;28;20159;-66
2021/12/16 10:23:03;;;;;;;20.88;13.75;;;;;;;3.56;93.51;101808.50;5040193;28;20025;-66
2021/12/16 10:25:36;;;;;;;13.38;10.13;;;;;;;3.25;94.91;101809.63;5041009;28;20098;-66
2021/12/16 10:28:12;;;;;;;21.73;11.93;;;;;;;3.48;95.00;101812.56;5047551;28;20052;-69
2021/12/16 10:30:58;;;;;;;22.77;12.65;;;;;;;3.26;95.73;101806.06;5039537;28;20285;-69
2021/12/16 10:33:30;;;;;;;23.73;11.93;;;;;;;3.38;94.93;101811.44;5034323;28;20036;-67
2021/12/16 10:36:11;;;;;;;20.30;11.77;;;;;;;3.38;95.62;101803.56;5041871;28;20044;-69
2021/12/16 10:38:55;;;;;;;16.60;10.70;;;;;;;3.39;95.17;101800.03;5042356;28;20071;-67
2021/12/16 10:41:42;;;;;;;17.75;12.07;;;;;;;3.50;95.76;101787.06;5043588;28;20033;-67
2021/12/16 10:44:21;;;;;;;18.98;11.70;;;;;;;3.53;95.85;101784.28;5036540;28;20478;-69
2021/12/16 10:47:01;;;;;;;17.48;10.73;;;;;;;3.32;95.45;101781.22;5045388;28;20040;-68
2021/12/16 10:49:51;;;;;;;16.17;11.15;;;;;;;3.40;95.94;101784.19;5045212;28;20037;-69
2021/12/16 10:52:22;;;;;;;14.38;9.73;;;;;;;3.39;96.14;101779.91;5039464;28;20086;-68
2021/12/16 10:54:50;;;;;;;14.38;10.57;;;;;;;3.24;97.02;101784.34;5047237;28;20040;-70
2021/12/16 10:57:15;;;;;;;17.50;10.23;;;;;;;3.35;97.15;101773.16;5041113;28;20102;-67
2021/12/16 10:59:47;;;;;;;24.48;10.70;;;;;;;3.35;96.98;101775.78;5048495;28;20126;-69
2021/12/16 11:02:21;;;;;;;18.35;10.68;;;;;;;3.45;97.11;101776.88;5028886;28;20402;-67
2021/12/16 11:05:00;;;;;;;33.63;10.80;;;;;;;3.18;97.76;101766.34;5047822;28;20481;-68
2021/12/16 11:07:31;;;;;;;19.00;11.45;;;;;;;3.29;97.60;101770.91;5045140;28;20116;-69
2021/12/16 11:10:12;;;;;;;19.05;11.60;;;;;;;3.18;98.53;101755.03;5057218;28;20041;-69
2021/12/16 11:12:39;;;;;;;21.90;10.50;;;;;;;3.44;98.20;101762.06;5048058;28;20025;-69
2021/12/16 11:15:11;;;;;;;20.63;11.18;;;;;;;3.32;97.67;101766.34;5040919;28;20166;-70
2021/12/16 11:17:39;;;;;;;18.17;10.27;;;;;;;3.38;97.82;101765.09;5042425;28;20051;-70
2021/12/16 11:20:05;;;;;;;18.92;12.43;;;;;;;3.41;98.13;101764.91;5049007;28;20121;-72
2021/12/16 11:22:33;;;;;;;17.25;10.38;;;;;;;3.27;98.10;101755.28;5042801;28;21271;-72
2021/12/16 11:25:16;;;;;;;25.70;11.35;;;;;;;3.27;97.94;101755.28;5049129;28;20098;-70
2021/12/16 11:27:46;;;;;;;15.82;10.48;;;;;;;3.39;97.50;101751.03;5040905;28;20397;-68
2021/12/16 11:30:40;;;;;;;16.92;10.63;;;;;;;3.32;98.12;101757.63;5039035;28;20090;-72
2021/12/16 11:33:09;;;;;;;22.55;10.95;;;;;;;3.39;97.58;101743.19;5041850;28;20041;-71
2021/12/16 11:35:43;;;;;;;23.00;11.93;;;;;;;3.49;98.41;101752.13;5042034;28;20041;-69
2021/12/16 11:38:25;;;;;;;23.35;12.07;;;;;;;3.47;98.20;101755.81;5041425;28;20505;-69
2021/12/16 11:41:14;;;;;;;16.02;10.82;;;;;;;3.48;97.40;101750.44;5038599;28;20398;-71
2021/12/16 11:43:52;;;;;;;14.10;10.40;;;;;;;3.46;98.13;101744.47;5042545;28;20029;-74
2021/12/16 11:46:20;;;;;;;15.05;10.88;;;;;;;3.46;98.11;101747.09;5047684;28;20033;-73
2021/12/16 11:48:45;;;;;;;20.13;11.43;;;;;;;3.49;98.70;101744.25;5045324;28;20032;-70
2021/12/16 11:51:18;;;;;;;23.50;11.00;;;;;;;3.34;98.85;101753.13;5046798;28;20555;-68
2021/12/16 11:53:55;;;;;;;20.67;11.00;;;;;;;3.23;98.30;101747.69;5039760;28;20090;-65
2021/12/16 11:56:42;;;;;;;21.08;12.60;;;;;;;3.39;99.04;101745.81;5045750;28;20094;-69
2021/12/16 11:59:09;;;;;;;16.90;11.90;;;;;;;3.36;98.58;101743.34;5042402;28;20021;-69
2021/12/16 12:01:37;;;;;;;21.90;11.27;;;;;;;3.41;99.09;101745.69;5044156;28;20021;-66
2021/12/16 12:04:06;;;;;;;25.50;12.60;;;;;;;3.41;98.90;101736.03;5043454;28;20033;-68
2021/12/16 12:06:33;;;;;;;20.42;12.20;;;;;;;3.29;98.95;101721.09;5047306;28;20068;-69
2021/12/16 12:09:00;;;;;;;18.92;11.55;;;;;;;3.42;99.62;101729.84;5047386;28;20119;-69
2021/12/16 12:11:33;;;;;;;24.98;14.15;;;;;;;3.48;99.54;101724.22;5041306;28;20069;-68
2021/12/16 12:14:09;;;;;;;27.13;13.38;;;;;;;3.49;99.13;101715.41;5045201;28;20136;-71
2021/12/16 12:16:47;;;;;;;38.63;15.07;;;;;;;3.56;100.00;101714.06;5044724;28;20497;-71
2021/12/16 12:19:21;;;;;;;23.38;14.10;;;;;;;3.52;100.00;101715.19;5041994;28;20036;-69
2021/12/16 12:22:00;;;;;;;28.40;14.43;;;;;;;3.48;100.00;101705.84;5040566;28;20037;-70
2021/12/16 12:24:37;;;;;;;31.90;14.43;;;;;;;3.36;100.00;101709.25;5042038;28;20285;-66
2021/12/16 12:27:09;;;;;;;27.88;15.30;;;;;;;3.46;100.00;101701.66;5049494;28;20044;-66
2021/12/16 12:29:39;;;;;;;38.38;15.80;;;;;;;3.46;100.00;101697.25;5044349;28;20029;-67
2021/12/16 12:32:10;;;;;;;29.45;15.18;;;;;;;3.54;100.00;101694.97;5038585;28;20029;-68
2021/12/16 12:34:39;;;;;;;35.55;16.70;;;;;;;3.67;100.00;101694.13;5037560;28;20029;-66
2021/12/16 12:37:10;;;;;;;27.35;14.23;;;;;;;3.56;100.00;101693.06;5037853;28;20116;-67
2021/12/16 12:39:39;;;;;;;28.38;14.90;;;;;;;3.47;100.00;101693.69;5044116;28;20060;-70
2021/12/16 12:42:07;;;;;;;25.77;14.57;;;;;;;3.48;100.00;101695.34;5044469;28;20071;-69
2021/12/16 12:44:33;;;;;;;28.70;15.05;;;;;;;3.51;100.00;101692.53;5050400;28;20485;-68
2021/12/16 12:47:05;;;;;;;28.63;14.43;;;;;;;3.60;100.00;101698.97;5047739;28;20036;-71
2021/12/16 12:49:31;;;;;;;26.83;14.13;;;;;;;3.48;100.00;101695.34;5044297;28;20052;-70
2021/12/16 12:52:14;;;;;;;28.02;15.93;;;;;;;3.62;100.00;101699.72;5048400;28;20032;-70
2021/12/16 12:54:43;;;;;;;41.40;17.50;;;;;;;3.60;100.00;101684.06;5046312;28;20025;-67
2021/12/16 12:57:36;;;;;;;30.95;15.98;;;;;;;3.53;100.00;101682.78;5045061;28;20053;-69
2021/12/16 13:00:09;;;;;;;35.33;16.92;;;;;;;3.64;100.00;101682.06;5041814;28;20072;-70
2021/12/16 13:02:37;;;;;;;38.28;17.02;;;;;;;3.54;100.00;101683.63;5049617;28;20112;-68
2021/12/16 13:05:10;;;;;;;35.78;16.83;;;;;;;3.55;100.00;101675.66;5038796;28;20390;-67
2021/12/16 13:07:45;;;;;;;32.17;15.48;;;;;;;3.53;100.00;101668.84;5049725;28;20124;-67
2021/12/16 13:10:18;;;;;;;34.35;17.00;;;;;;;3.45;100.00;101669.34;5036713;28;20045;-66
2021/12/16 13:12:56;;;;;;;34.60;16.60;;;;;;;3.57;100.00;101676.38;5039662;28;20386;-69
2021/12/16 13:15:43;;;;;;;34.08;17.58;;;;;;;3.52;100.00;101667.97;5020696;28;20441;-69
2021/12/16 13:27:08;;;;;;;32.88;17.15;;;;;;;3.49;100.00;101676.06;5022258;28;20052;-67
2021/12/16 13:29:41;;;;;;;42.97;18.08;;;;;;;3.54;100.00;101676.59;5033353;28;20037;-67
2021/12/16 13:32:19;;;;;;;45.28;17.13;;;;;;;3.51;100.00;101674.16;5025342;28;20462;-66
2021/12/16 13:37:29;;;;;;;31.23;16.48;;;;;;;3.52;100.00;101661.88;5022872;28;20037;-68
2021/12/16 13:40:03;;;;;;;45.25;16.92;;;;;;;3.48;100.00;101669.13;5023523;28;20429;-67
2021/12/16 13:42:54;;;;;;;28.52;16.02;;;;;;;3.47;100.00;101670.06;5020275;28;20154;-69
2021/12/16 13:46:06;;;;;;;33.15;16.75;;;;;;;3.51;100.00;101674.16;5021287;28;20486;-71
2021/12/16 14:00:28;;;;;;;49.22;19.40;;;;;;;3.49;100.00;101665.56;5028465;28;20553;-68
2021/12/16 14:07:58;;;;;;;41.92;18.23;;;;;;;3.54;100.00;101652.16;5021881;28;20041;-68
2021/12/16 14:10:45;;;;;;;35.33;19.90;;;;;;;3.48;100.00;101648.13;5018978;28;20919;-70
2021/12/16 14:41:05;;;;;;;43.47;20.00;;;;;;;3.32;100.00;101598.47;5024016;28;20505;-66
2021/12/16 14:43:38;;;;;;;39.75;21.20;;;;;;;3.33;100.00;101596.69;5036069;28;20580;-67
2021/12/16 14:46:07;;;;;;;35.75;18.58;;;;;;;3.32;100.00;101595.84;5030979;28;20025;-67
2021/12/16 14:48:35;;;;;;;39.40;20.55;;;;;;;3.27;100.00;101592.69;5029850;28;20029;-67
2021/12/16 14:51:10;;;;;;;33.53;17.88;;;;;;;3.38;100.00;101592.00;5036343;28;20048;-66
2021/12/16 14:53:38;;;;;;;;;;;;;;;3.41;100.00;101593.56;5041478;28;20032;-71
2021/12/16 14:56:13;;;;;;;36.95;18.50;;;;;;;3.42;100.00;101590.84;5036223;28;19917;-67
2021/12/16 14:58:42;;;;;;;43.38;21.05;;;;;;;3.45;100.00;101600.28;5038635;28;20044;-68
2021/12/16 15:01:12;;;;;;;51.83;20.52;;;;;;;3.46;100.00;101594.94;5042453;28;20025;-70
2021/12/16 15:03:41;;;;;;;50.13;20.60;;;;;;;3.48;100.00;101595.69;5046373;28;20028;-70